Time;durP1;ratioP1;P1;durP2;ratioP2;P2;SDS_P1;SDS_P2;PMS_P1;PMS_P2;Temp;Humidity;BMP_temperature;BMP_pressure;BME280_temperature;BME280_humidity;BME280_pressure;Samples;Min_cycle;Max_cycle;Signal;HPM_P1;HPM_P2
2021/04/18 00:01:56;;;;;;;6.70;4.63;;;;;;;7.42;66.15;100606.78;5151981;27;20031;-69
2021/04/18 00:04:29;;;;;;;6.85;4.07;;;;;;;7.41;66.17;100602.44;5151558;27;20118;-67
2021/04/18 00:07:01;;;;;;;8.15;4.97;;;;;;;7.41;66.26;100600.78;5151652;27;20474;-69
2021/04/18 00:09:29;;;;;;;6.53;4.32;;;;;;;7.41;66.22;100605.03;5151629;27;20043;-70
2021/04/18 00:12:02;;;;;;;7.00;3.63;;;;;;;7.42;65.94;100606.78;5132917;27;20466;-69
2021/04/18 00:14:48;;;;;;;8.65;4.22;;;;;;;7.41;66.14;100605.94;5151736;27;20034;-69
2021/04/18 00:17:13;;;;;;;7.10;4.30;;;;;;;7.42;65.93;100604.22;5151283;27;20039;-70
2021/04/18 00:19:42;;;;;;;6.47;3.83;;;;;;;7.42;66.15;100606.78;5151790;27;20049;-67
2021/04/18 00:22:10;;;;;;;5.55;3.97;;;;;;;7.41;66.55;100598.19;5151325;27;20524;-69
2021/04/18 00:24:41;;;;;;;7.25;4.10;;;;;;;7.41;66.01;100594.72;5125902;27;20069;-69
2021/04/18 00:27:18;;;;;;;6.82;4.82;;;;;;;7.41;66.08;100594.72;5119070;27;20027;-70
2021/04/18 00:29:46;;;;;;;6.93;4.25;;;;;;;7.41;66.03;100598.19;5136302;27;20039;-69
2021/04/18 00:32:17;;;;;;;7.03;4.93;;;;;;;7.41;66.26;100594.72;5119276;27;20039;-69
2021/04/18 00:34:51;;;;;;;6.65;4.00;;;;;;;7.41;66.26;100595.59;5118855;27;20063;-66
2021/04/18 00:37:21;;;;;;;11.30;4.43;;;;;;;7.41;66.08;100589.56;5118992;27;20035;-67
2021/04/18 00:39:53;;;;;;;6.72;5.22;;;;;;;7.40;66.34;100588.69;5137440;27;20035;-67
2021/04/18 00:42:24;;;;;;;7.57;4.38;;;;;;;7.42;65.98;100586.16;5118710;27;20097;-68
2021/04/18 00:44:52;;;;;;;8.18;5.07;;;;;;;7.41;66.29;100584.41;5136835;27;20027;-67
2021/04/18 00:47:31;;;;;;;6.07;4.32;;;;;;;7.41;66.05;100584.41;5137406;27;20152;-70
2021/04/18 00:49:58;;;;;;;5.47;3.95;;;;;;;7.42;66.05;100586.16;5118415;27;20027;-69
2021/04/18 00:52:32;;;;;;;5.88;4.30;;;;;;;7.42;66.46;100588.72;5118671;27;20130;-70
2021/04/18 00:55:06;;;;;;;7.40;4.03;;;;;;;7.41;65.93;100584.41;5118911;27;20067;-68
2021/04/18 00:57:37;;;;;;;7.87;4.70;;;;;;;7.41;65.81;100581.81;5136692;27;20059;-69
2021/04/18 01:00:09;;;;;;;6.80;3.85;;;;;;;7.40;66.26;100580.94;5118607;27;20549;-70
2021/04/18 01:02:43;;;;;;;4.72;3.63;;;;;;;7.41;66.34;100589.56;5118519;27;20031;-69
2021/04/18 01:05:11;;;;;;;6.93;4.10;;;;;;;7.41;66.09;100579.25;5118493;27;20119;-69
2021/04/18 01:07:45;;;;;;;8.55;4.38;;;;;;;7.41;66.35;100585.28;5136384;27;20035;-70
2021/04/18 01:10:15;;;;;;;5.78;4.15;;;;;;;7.39;66.56;100579.19;5136681;27;20084;-70
2021/04/18 01:12:43;;;;;;;8.85;4.43;;;;;;;7.39;66.26;100573.16;5109171;28;20048;-69
2021/04/18 01:15:15;;;;;;;6.43;4.55;;;;;;;7.39;66.09;100574.03;5077282;28;20109;-70
2021/04/18 01:17:44;;;;;;;5.65;4.07;;;;;;;7.39;66.26;100580.91;5094068;28;20040;-69
2021/04/18 01:20:21;;;;;;;6.70;4.63;;;;;;;7.39;66.11;100575.75;5095439;28;20040;-70
2021/04/18 01:22:50;;;;;;;6.63;4.18;;;;;;;7.39;66.03;100573.16;5094500;28;20498;-69
2021/04/18 01:25:22;;;;;;;5.35;3.88;;;;;;;7.37;66.50;100575.69;5094063;28;20032;-70
2021/04/18 01:27:55;;;;;;;5.70;4.03;;;;;;;7.38;66.38;100571.41;5095788;28;20036;-69
2021/04/18 01:30:26;;;;;;;6.85;4.93;;;;;;;7.37;66.10;100567.94;5095394;28;20040;-68
2021/04/18 01:32:58;;;;;;;6.00;3.85;;;;;;;7.36;66.62;100573.91;5094407;28;20032;-69
2021/04/18 01:35:29;;;;;;;9.98;4.28;;;;;;;7.36;66.12;100566.19;5093586;28;20039;-68
2021/04/18 01:37:58;;;;;;;5.50;3.75;;;;;;;7.37;66.11;100564.50;5093355;28;20540;-69
2021/04/18 01:40:29;;;;;;;7.07;5.13;;;;;;;7.36;66.15;100565.31;5095038;28;20028;-69
2021/04/18 01:43:04;;;;;;;5.10;3.97;;;;;;;7.35;66.08;100567.00;5095049;28;20097;-68
2021/04/18 01:45:35;;;;;;;6.28;4.05;;;;;;;7.35;65.96;100563.56;5095226;28;20483;-69
2021/04/18 01:48:08;;;;;;;6.82;4.00;;;;;;;7.36;65.90;100573.06;5093641;28;20562;-68
2021/04/18 01:50:47;;;;;;;11.38;4.82;;;;;;;7.35;66.42;100563.56;5093431;28;20494;-69
2021/04/18 01:53:21;;;;;;;6.05;4.38;;;;;;;7.35;66.49;100566.13;5093144;28;20388;-69
2021/04/18 01:55:52;;;;;;;6.40;4.53;;;;;;;7.34;66.33;100562.66;5094818;28;20032;-69
2021/04/18 01:58:26;;;;;;;6.22;4.45;;;;;;;7.34;66.46;100559.22;5093585;28;20091;-69
2021/04/18 02:00:52;;;;;;;7.03;4.60;;;;;;;7.34;66.56;100561.78;5093842;28;20119;-69
2021/04/18 02:03:21;;;;;;;5.70;3.78;;;;;;;7.35;65.91;100563.56;5076732;28;20201;-69
2021/04/18 02:05:49;;;;;;;7.65;4.30;;;;;;;7.33;66.15;100571.22;5094568;28;20165;-69
2021/04/18 02:08:20;;;;;;;7.55;4.88;;;;;;;7.32;66.46;100567.78;5093262;28;20043;-69
2021/04/18 02:10:53;;;;;;;5.47;4.23;;;;;;;7.30;66.31;100560.81;5094094;28;20118;-69
2021/04/18 02:13:24;;;;;;;9.30;5.20;;;;;;;7.30;66.36;100558.22;5115541;27;20047;-69
2021/04/18 02:15:58;;;;;;;6.47;4.28;;;;;;;7.32;66.33;100565.19;5117213;27;20024;-69
2021/04/18 02:18:31;;;;;;;6.83;4.13;;;;;;;7.31;66.46;100563.44;5135127;27;20042;-69
2021/04/18 02:20:59;;;;;;;8.13;5.07;;;;;;;7.30;65.94;100561.69;5135046;27;20195;-69
2021/04/18 02:23:32;;;;;;;5.55;3.97;;;;;;;7.30;66.42;100556.53;5116714;27;20421;-69
2021/04/18 02:26:06;;;;;;;;;;;;;;;7.30;66.54;100555.66;5135494;27;20035;-69
2021/04/18 02:28:40;;;;;;;4.88;3.92;;;;;;;7.30;66.45;100558.22;5135298;27;20009;-70
2021/04/18 02:31:11;;;;;;;8.10;4.82;;;;;;;7.29;65.86;100557.34;5134905;27;20035;-69
2021/04/18 02:33:42;;;;;;;7.88;5.13;;;;;;;7.29;65.98;100561.63;5100094;27;20031;-69
2021/04/18 02:36:13;;;;;;;6.25;3.85;;;;;;;7.28;66.27;100550.41;5117102;27;20035;-69
2021/04/18 02:38:44;;;;;;;9.85;5.47;;;;;;;7.28;66.38;100550.41;5134680;27;20043;-69
2021/04/18 02:41:13;;;;;;;6.60;4.55;;;;;;;7.28;66.38;100557.28;5116613;27;20092;-69
2021/04/18 02:43:43;;;;;;;7.63;3.90;;;;;;;7.26;66.43;100558.94;5134253;27;20521;-69
2021/04/18 02:46:12;;;;;;;7.30;4.82;;;;;;;7.27;66.65;100558.97;5099899;27;20428;-69
2021/04/18 02:48:40;;;;;;;10.70;4.72;;;;;;;7.28;66.48;100562.44;5134132;27;20406;-69
2021/04/18 02:51:08;;;;;;;6.50;4.25;;;;;;;7.28;66.05;100562.44;5099399;27;20079;-69
2021/04/18 02:53:34;;;;;;;6.68;4.40;;;;;;;7.27;66.05;100556.41;5134534;27;20069;-69
2021/04/18 02:56:04;;;;;;;11.45;5.43;;;;;;;7.25;66.12;100555.47;5099105;27;20420;-69
2021/04/18 02:58:29;;;;;;;9.43;4.65;;;;;;;7.26;66.07;100551.19;5098966;27;20035;-69
2021/04/18 03:00:55;;;;;;;6.82;4.45;;;;;;;7.25;66.12;100560.63;5099545;27;20035;-69
2021/04/18 03:03:23;;;;;;;7.20;4.45;;;;;;;7.25;66.08;100562.31;5099062;27;20070;-69
2021/04/18 03:05:50;;;;;;;6.75;4.50;;;;;;;7.25;66.06;100567.47;5134950;27;20039;-69
2021/04/18 03:08:21;;;;;;;8.85;5.32;;;;;;;7.24;66.68;100569.16;5134620;27;20509;-69
2021/04/18 03:10:46;;;;;;;7.55;5.53;;;;;;;7.24;66.43;100564.00;5115761;28;20027;-69
2021/04/18 03:13:17;;;;;;;7.47;4.97;;;;;;;7.25;65.93;100567.47;5085673;28;20052;-69
2021/04/18 03:15:47;;;;;;;8.23;4.75;;;;;;;7.23;66.39;100567.44;5092756;28;20483;-69
2021/04/18 03:18:18;;;;;;;6.68;4.47;;;;;;;7.23;66.01;100569.13;5093841;28;20032;-69
2021/04/18 03:20:43;;;;;;;8.82;5.15;;;;;;;7.23;66.21;100564.84;5075321;28;20061;-69
2021/04/18 03:23:11;;;;;;;8.35;4.47;;;;;;;7.22;66.38;100568.25;5092124;28;20040;-69
2021/04/18 03:25:37;;;;;;;7.20;4.47;;;;;;;7.22;66.57;100567.38;5093360;28;20028;-69
2021/04/18 03:28:06;;;;;;;8.95;4.93;;;;;;;7.22;66.21;100567.38;5093425;28;20043;-69
2021/04/18 03:30:35;;;;;;;11.70;5.22;;;;;;;7.21;66.20;100563.91;5093586;28;20036;-69
2021/04/18 03:33:00;;;;;;;8.00;5.28;;;;;;;7.22;66.15;100562.22;5093141;28;20086;-69
2021/04/18 03:35:29;;;;;;;7.57;5.13;;;;;;;7.21;66.70;100569.06;5092215;28;20107;-69
2021/04/18 03:38:00;;;;;;;8.07;4.85;;;;;;;7.20;66.15;100569.91;5092797;28;20059;-69
2021/04/18 03:40:26;;;;;;;6.45;4.35;;;;;;;7.20;66.61;100562.16;5093001;28;20571;-69
2021/04/18 03:42:56;;;;;;;7.00;4.43;;;;;;;7.19;66.26;100557.81;5092240;28;20063;-69
2021/04/18 03:45:25;;;;;;;8.18;4.95;;;;;;;7.19;66.35;100559.50;5093077;28;20411;-69
2021/04/18 03:47:53;;;;;;;9.27;5.03;;;;;;;7.18;66.47;100563.78;5091934;28;20498;-69
2021/04/18 03:50:19;;;;;;;6.35;5.13;;;;;;;7.18;66.44;100545.75;5093018;28;20051;-69
2021/04/18 03:52:48;;;;;;;8.32;5.15;;;;;;;7.18;66.49;100556.06;5092566;28;20040;-68
2021/04/18 03:55:19;;;;;;;7.82;4.72;;;;;;;7.17;66.43;100556.88;5093271;28;20036;-69
2021/04/18 03:57:50;;;;;;;7.00;4.20;;;;;;;7.18;66.06;100556.06;5092854;28;20032;-68
2021/04/18 04:00:16;;;;;;;8.02;5.00;;;;;;;7.17;66.49;100554.31;5094068;28;20054;-69
2021/04/18 04:02:47;;;;;;;7.40;5.03;;;;;;;7.16;66.46;100548.25;5095872;28;20032;-68
2021/04/18 04:05:18;;;;;;;8.30;5.03;;;;;;;7.15;66.70;100551.69;5095331;28;20043;-68
2021/04/18 04:07:46;;;;;;;7.55;5.18;;;;;;;7.15;66.44;100549.09;5095773;28;20051;-69
2021/04/18 04:10:14;;;;;;;9.52;5.50;;;;;;;7.15;66.19;100554.25;5095491;28;20048;-69
2021/04/18 04:12:39;;;;;;;5.60;4.35;;;;;;;7.14;66.12;100549.91;5101269;27;20063;-69
2021/04/18 04:15:07;;;;;;;8.00;5.55;;;;;;;7.13;66.53;100550.75;5102838;27;20035;-69
2021/04/18 04:17:37;;;;;;;7.60;4.57;;;;;;;7.13;66.25;100543.00;5137586;27;20509;-68
2021/04/18 04:20:04;;;;;;;7.95;4.55;;;;;;;7.14;65.88;100546.44;5119240;27;20077;-69
2021/04/18 04:22:31;;;;;;;7.63;4.28;;;;;;;7.12;65.92;100541.25;5137537;27;20039;-68
2021/04/18 04:25:00;;;;;;;6.85;5.10;;;;;;;7.12;66.38;100550.66;5137552;27;20027;-68
2021/04/18 04:27:28;;;;;;;7.20;5.20;;;;;;;7.12;66.07;100548.97;5137361;27;20125;-68
2021/04/18 04:29:54;;;;;;;7.88;5.22;;;;;;;7.12;66.38;100551.56;5101883;27;20050;-68
2021/04/18 04:32:22;;;;;;;8.60;4.93;;;;;;;7.12;66.16;100553.25;5118510;27;20446;-68
2021/04/18 04:34:48;;;;;;;8.90;5.07;;;;;;;7.11;66.10;100554.06;5137343;27;20037;-68
2021/04/18 04:37:16;;;;;;;8.20;4.63;;;;;;;7.10;66.06;100560.03;5137273;27;20118;-68
2021/04/18 04:39:48;;;;;;;7.05;5.40;;;;;;;7.10;65.99;100560.03;5119351;27;20134;-69
2021/04/18 04:42:14;;;;;;;8.32;5.18;;;;;;;7.10;66.65;100566.09;5119196;27;20080;-68
2021/04/18 04:44:39;;;;;;;6.47;5.15;;;;;;;7.11;66.23;100572.09;5118978;27;20027;-69
2021/04/18 04:47:05;;;;;;;7.88;5.53;;;;;;;7.08;65.98;100575.44;5118696;27;20039;-68
2021/04/18 04:49:35;;;;;;;7.72;5.40;;;;;;;7.09;66.13;100574.63;5119071;27;20505;-69
2021/04/18 04:52:09;;;;;;;7.97;5.25;;;;;;;7.08;65.98;100574.59;5101776;27;20035;-69
2021/04/18 04:54:37;;;;;;;7.72;5.03;;;;;;;7.08;66.24;100570.28;5135373;27;20496;-69
2021/04/18 04:57:04;;;;;;;6.35;5.22;;;;;;;7.08;66.28;100572.00;5136437;27;20035;-69
2021/04/18 04:59:32;;;;;;;9.30;5.65;;;;;;;7.09;66.23;100578.88;5136508;27;20031;-69
2021/04/18 05:01:57;;;;;;;10.68;4.82;;;;;;;7.08;66.43;100572.88;5136554;27;20059;-69
2021/04/18 05:04:25;;;;;;;7.97;5.15;;;;;;;7.09;66.53;100573.75;5118101;27;20070;-69
2021/04/18 05:06:56;;;;;;;8.40;4.78;;;;;;;7.08;66.41;100570.28;5118583;27;20039;-69
2021/04/18 05:09:24;;;;;;;6.65;5.00;;;;;;;7.08;66.40;100572.00;5118196;27;20067;-69
2021/04/18 05:11:54;;;;;;;8.25;5.03;;;;;;;7.08;66.69;100569.44;5118105;27;20445;-69
2021/04/18 05:14:25;;;;;;;7.22;5.00;;;;;;;7.07;66.24;100567.66;5117726;27;20134;-69
2021/04/18 05:16:57;;;;;;;8.65;5.40;;;;;;;7.08;66.44;100579.75;5118663;27;20371;-69
2021/04/18 05:19:25;;;;;;;7.70;5.47;;;;;;;7.07;66.27;100575.41;5136356;27;20034;-69
2021/04/18 05:21:56;;;;;;;9.27;6.32;;;;;;;7.06;66.57;100571.94;5118011;27;20031;-69
2021/04/18 05:24:31;;;;;;;9.75;5.53;;;;;;;7.07;66.41;100580.56;5136383;27;20163;-69
2021/04/18 05:26:56;;;;;;;10.82;5.60;;;;;;;7.05;66.25;100579.63;5100714;27;20114;-69
2021/04/18 05:29:26;;;;;;;8.52;6.07;;;;;;;7.05;66.10;100588.22;5118472;27;20065;-69
2021/04/18 05:31:55;;;;;;;8.15;5.07;;;;;;;7.06;66.44;100591.69;5118108;27;20157;-69
2021/04/18 05:34:26;;;;;;;8.90;5.15;;;;;;;7.06;66.14;100594.25;5118457;27;20046;-69
2021/04/18 05:36:54;;;;;;;8.75;6.05;;;;;;;7.05;66.49;100590.78;5100724;27;20039;-70
2021/04/18 05:39:22;;;;;;;10.10;5.80;;;;;;;7.05;66.63;100584.78;5100331;27;20035;-69
2021/04/18 05:41:53;;;;;;;7.93;5.60;;;;;;;7.04;66.39;100586.44;5135408;27;20114;-69
2021/04/18 05:44:25;;;;;;;8.05;5.03;;;;;;;7.05;66.41;100592.50;5118125;27;20038;-69
2021/04/18 05:46:55;;;;;;;7.00;5.53;;;;;;;7.04;66.29;100594.19;5117328;27;20038;-69
2021/04/18 05:49:26;;;;;;;8.50;5.20;;;;;;;7.04;66.43;100593.31;5135937;27;20123;-69
2021/04/18 05:52:03;;;;;;;10.32;5.68;;;;;;;7.03;66.18;100595.00;5117908;27;20509;-69
2021/04/18 05:54:36;;;;;;;10.27;5.50;;;;;;;7.03;66.52;100600.16;5135885;27;20027;-69
2021/04/18 05:57:07;;;;;;;10.32;6.55;;;;;;;7.03;66.08;100602.72;5117638;27;20059;-69
2021/04/18 05:59:41;;;;;;;8.82;5.70;;;;;;;7.04;66.51;100598.47;5117473;27;20050;-69
2021/04/18 06:02:09;;;;;;;9.13;6.60;;;;;;;7.04;65.89;100598.47;5135713;27;20122;-68
2021/04/18 06:04:40;;;;;;;9.43;5.93;;;;;;;7.03;66.56;100602.72;5117214;27;20035;-69
2021/04/18 06:07:08;;;;;;;9.55;5.13;;;;;;;7.02;66.08;100595.81;5101062;27;20039;-69
2021/04/18 06:09:39;;;;;;;7.80;5.50;;;;;;;7.03;66.33;100601.88;5135337;27;20038;-69
2021/04/18 06:12:11;;;;;;;9.88;5.90;;;;;;;7.01;66.17;100602.69;5135678;27;20482;-69
2021/04/18 06:14:42;;;;;;;10.02;4.85;;;;;;;7.01;66.41;100594.06;5135245;27;20051;-69
2021/04/18 06:17:13;;;;;;;9.88;5.05;;;;;;;7.00;66.31;100594.91;5117021;27;20034;-68
2021/04/18 06:19:41;;;;;;;8.27;4.93;;;;;;;7.01;66.34;100594.94;5135378;27;20031;-69
2021/04/18 06:22:12;;;;;;;8.65;5.93;;;;;;;7.02;66.21;100588.09;5116187;28;20035;-69
2021/04/18 06:24:43;;;;;;;10.18;5.78;;;;;;;7.00;66.18;100590.63;5117334;27;20077;-69
2021/04/18 06:27:12;;;;;;;;;;;;;;;7.00;66.50;100595.78;5117654;27;20055;-69
2021/04/18 06:29:43;;;;;;;5.93;4.85;;;;;;;6.98;66.23;100588.81;5099697;27;19915;-69
2021/04/18 06:32:12;;;;;;;8.38;5.72;;;;;;;6.98;66.26;100588.81;5117057;27;20043;-69
2021/04/18 06:34:48;;;;;;;8.98;5.57;;;;;;;6.97;66.65;100595.66;5116739;27;20045;-69
2021/04/18 06:37:19;;;;;;;9.07;6.28;;;;;;;6.98;66.61;100592.25;5134794;27;20039;-69
2021/04/18 06:39:52;;;;;;;7.63;5.68;;;;;;;6.99;66.47;100588.84;5116451;27;20058;-69
2021/04/18 06:42:25;;;;;;;8.77;6.25;;;;;;;6.98;66.47;100594.81;5116892;28;20489;-69
2021/04/18 06:44:54;;;;;;;12.27;5.40;;;;;;;6.96;66.60;100596.47;5117035;27;20046;-68
2021/04/18 06:47:26;;;;;;;8.55;5.35;;;;;;;6.97;66.41;100585.34;5134709;27;20039;-69
2021/04/18 06:49:59;;;;;;;7.55;6.10;;;;;;;6.97;66.71;100589.63;5099612;27;20046;-69
2021/04/18 06:52:31;;;;;;;10.40;6.03;;;;;;;6.95;66.64;100594.69;5134702;27;20059;-69
2021/04/18 06:55:03;;;;;;;9.43;6.43;;;;;;;6.94;66.83;100592.06;5134925;27;20118;-70
2021/04/18 06:57:33;;;;;;;8.00;5.97;;;;;;;6.95;66.48;100606.72;5116731;27;20180;-69
2021/04/18 07:00:06;;;;;;;7.97;5.90;;;;;;;6.95;66.45;100602.44;5099874;27;20046;-69
2021/04/18 07:02:36;;;;;;;6.28;5.10;;;;;;;6.96;66.46;100604.19;5134543;27;20035;-69
2021/04/18 07:05:11;;;;;;;9.13;6.45;;;;;;;6.95;66.71;100602.44;5134019;27;20102;-69
2021/04/18 07:07:44;;;;;;;11.02;6.20;;;;;;;6.95;66.77;100605.00;5150715;27;20054;-69
2021/04/18 07:10:31;;;;;;;12.30;6.78;;;;;;;6.94;66.32;100592.94;5134505;27;20053;-69
2021/04/18 07:13:10;;;;;;;13.73;7.15;;;;;;;6.94;66.44;100589.50;5134286;27;20047;-69
2021/04/18 07:15:44;;;;;;;10.18;6.18;;;;;;;6.93;66.51;100596.34;5134381;28;20066;-69
2021/04/18 07:18:32;;;;;;;10.02;7.07;;;;;;;6.92;66.35;100592.03;5116461;28;20054;-69
2021/04/18 07:21:00;;;;;;;7.25;5.93;;;;;;;6.92;66.59;100586.88;5134699;28;20039;-69
2021/04/18 07:23:30;;;;;;;23.38;6.90;;;;;;;6.91;66.50;100582.53;5116336;28;20119;-69
2021/04/18 07:26:26;;;;;;;7.70;5.70;;;;;;;6.90;66.47;100580.78;5134149;28;20043;-69
2021/04/18 07:29:10;;;;;;;10.57;6.35;;;;;;;6.88;66.54;100574.69;5115816;28;20033;-69
2021/04/18 07:31:36;;;;;;;10.45;7.25;;;;;;;6.86;66.67;100584.03;5116034;28;20054;-69
2021/04/18 07:34:10;;;;;;;13.45;7.10;;;;;;;6.85;66.71;100577.13;5116022;28;20470;-69
2021/04/18 07:36:42;;;;;;;10.18;6.30;;;;;;;6.84;66.82;100581.41;5120120;27;20036;-69
2021/04/18 07:39:13;;;;;;;14.18;8.38;;;;;;;6.84;66.47;100571.09;5138671;27;20035;-69
2021/04/18 07:41:47;;;;;;;9.45;6.97;;;;;;;6.83;66.39;100573.59;5138746;27;20084;-69
2021/04/18 07:44:19;;;;;;;11.43;6.63;;;;;;;6.86;66.54;100566.00;5120048;27;20035;-69
2021/04/18 07:46:49;;;;;;;11.05;6.88;;;;;;;6.86;66.54;100576.31;5138246;27;20390;-69
2021/04/18 07:49:15;;;;;;;10.85;6.38;;;;;;;6.85;66.68;100572.84;5120171;27;20478;-68
2021/04/18 07:51:46;;;;;;;12.88;7.70;;;;;;;6.87;66.56;100572.91;5119774;27;20031;-69
2021/04/18 07:54:13;;;;;;;11.05;6.65;;;;;;;6.88;67.09;100566.06;5119196;27;20039;-69
2021/04/18 07:56:49;;;;;;;11.43;7.28;;;;;;;6.86;66.74;100559.13;5138172;27;20031;-69
2021/04/18 07:59:21;;;;;;;10.75;6.95;;;;;;;6.86;66.64;100563.44;5119636;27;20035;-69
2021/04/18 08:01:49;;;;;;;11.93;7.15;;;;;;;6.88;66.85;100560.91;5137985;27;20116;-69
2021/04/18 08:04:17;;;;;;;10.10;6.93;;;;;;;6.89;66.77;100562.66;5137916;27;20046;-69
2021/04/18 08:06:42;;;;;;;11.43;6.88;;;;;;;6.90;66.66;100565.31;5102534;27;20031;-68
2021/04/18 08:09:22;;;;;;;10.45;6.63;;;;;;;6.90;66.54;100573.03;5137878;27;20436;-69
2021/04/18 08:12:06;;;;;;;13.57;6.55;;;;;;;6.92;66.98;100570.50;5119321;27;20027;-68
2021/04/18 08:14:35;;;;;;;12.35;6.68;;;;;;;6.93;66.50;100575.72;5137756;27;20043;-69
2021/04/18 08:17:08;;;;;;;8.13;5.93;;;;;;;6.93;66.66;100572.28;5137486;27;20034;-69
2021/04/18 08:19:34;;;;;;;9.15;6.07;;;;;;;6.94;66.71;100572.31;5119432;27;20035;-69
2021/04/18 08:22:00;;;;;;;9.02;6.60;;;;;;;6.95;66.77;100574.09;5119108;27;20027;-68
2021/04/18 08:24:25;;;;;;;11.35;6.75;;;;;;;6.95;67.00;100574.09;5119355;27;20042;-69
2021/04/18 08:27:11;;;;;;;13.73;7.60;;;;;;;6.96;66.61;100577.56;5137492;27;20046;-69
2021/04/18 08:29:59;;;;;;;9.77;5.47;;;;;;;6.97;66.92;100587.91;5137533;27;20043;-69
2021/04/18 08:32:39;;;;;;;9.98;6.25;;;;;;;6.98;66.79;100581.06;5137234;27;20043;-69
2021/04/18 08:35:16;;;;;;;11.80;6.20;;;;;;;6.98;66.64;100574.22;5137289;27;20088;-69
2021/04/18 08:38:04;;;;;;;9.70;6.00;;;;;;;6.99;66.56;100578.53;5119239;27;20087;-69
2021/04/18 08:40:37;;;;;;;10.57;6.22;;;;;;;7.00;66.81;100576.88;5118597;27;20043;-69
2021/04/18 08:43:25;;;;;;;10.52;6.50;;;;;;;7.00;66.64;100580.31;5137307;27;20035;-69
2021/04/18 08:45:52;;;;;;;8.93;5.72;;;;;;;7.03;66.58;100578.66;5099354;27;20390;-69
2021/04/18 08:48:17;;;;;;;9.50;6.53;;;;;;;7.04;66.39;100583.00;5137280;27;20074;-69
2021/04/18 08:50:58;;;;;;;10.38;6.15;;;;;;;7.04;66.51;100583.88;5136919;27;20074;-69
2021/04/18 08:53:27;;;;;;;13.30;6.82;;;;;;;7.06;66.96;100589.09;5136928;27;20035;-69
2021/04/18 08:55:55;;;;;;;9.35;5.97;;;;;;;7.06;66.33;100581.38;5118545;27;20035;-69
2021/04/18 08:58:38;;;;;;;9.48;7.05;;;;;;;7.07;66.87;100584.00;5137141;27;20520;-68
2021/04/18 09:01:12;;;;;;;9.45;5.55;;;;;;;7.10;66.35;100593.53;5118874;27;20095;-69
2021/04/18 09:03:57;;;;;;;7.90;5.25;;;;;;;7.11;66.24;100591.03;5136809;27;20035;-69
2021/04/18 09:06:35;;;;;;;11.05;5.75;;;;;;;7.12;66.29;100592.81;5136264;27;20035;-70
2021/04/18 09:09:06;;;;;;;10.73;6.10;;;;;;;7.13;66.48;100596.25;5136834;27;20063;-69
2021/04/18 09:11:41;;;;;;;10.70;5.90;;;;;;;7.14;66.86;100598.91;5101637;27;20461;-69
2021/04/18 09:14:07;;;;;;;8.30;4.70;;;;;;;7.16;66.76;100593.78;5152662;27;20039;-69
2021/04/18 09:16:37;;;;;;;10.02;5.97;;;;;;;7.16;66.53;100592.06;5118043;27;20027;-69
2021/04/18 09:19:25;;;;;;;8.88;5.80;;;;;;;7.18;66.40;100599.88;5136463;27;20031;-69
2021/04/18 09:22:17;;;;;;;8.80;5.47;;;;;;;7.21;66.63;100606.84;5136499;27;20027;-69
2021/04/18 09:25:00;;;;;;;7.88;5.80;;;;;;;7.22;66.33;100600.88;5113579;27;20051;-69
2021/04/18 09:27:38;;;;;;;8.68;6.43;;;;;;;7.21;66.79;100600.00;5117771;27;20502;-69
2021/04/18 09:30:16;;;;;;;7.70;5.68;;;;;;;7.23;66.57;100597.47;5136723;27;20534;-69
2021/04/18 09:32:54;;;;;;;7.45;5.38;;;;;;;7.26;66.87;100597.59;5135876;27;20062;-69
2021/04/18 09:35:26;;;;;;;7.68;5.45;;;;;;;7.26;66.22;100593.31;5117723;27;20043;-69
2021/04/18 09:38:00;;;;;;;8.52;5.45;;;;;;;7.28;66.49;100594.25;5152676;27;20035;-69
2021/04/18 09:40:27;;;;;;;7.18;5.13;;;;;;;7.28;66.40;100594.25;5136077;27;20039;-69
2021/04/18 09:42:54;;;;;;;9.93;5.88;;;;;;;7.31;66.79;100596.09;5117725;27;20039;-70
2021/04/18 09:45:26;;;;;;;13.23;6.00;;;;;;;7.34;66.21;100598.75;5135847;27;20062;-69
2021/04/18 09:47:55;;;;;;;9.15;6.13;;;;;;;7.36;66.81;100596.25;5135842;27;20059;-70
2021/04/18 09:50:33;;;;;;;8.38;5.55;;;;;;;7.37;66.60;100598.03;5100178;27;20089;-70
2021/04/18 09:53:25;;;;;;;9.98;6.38;;;;;;;7.41;66.37;100599.88;5117672;27;20027;-70
2021/04/18 09:55:56;;;;;;;9.68;6.28;;;;;;;7.41;66.75;100590.44;5132412;27;20465;-69
2021/04/18 09:58:33;;;;;;;8.90;5.68;;;;;;;7.44;66.47;100597.41;5116557;27;20481;-69
2021/04/18 10:01:03;;;;;;;7.55;5.05;;;;;;;7.46;66.76;100590.63;5117895;27;20485;-69
2021/04/18 10:03:39;;;;;;;7.57;5.20;;;;;;;7.46;66.60;100599.25;5117155;27;20035;-69
2021/04/18 10:06:12;;;;;;;8.77;5.28;;;;;;;7.47;66.39;100597.53;5116801;27;20027;-69
2021/04/18 10:08:51;;;;;;;9.90;5.38;;;;;;;7.47;66.33;100600.13;5135620;27;20034;-69
2021/04/18 10:11:18;;;;;;;8.40;5.25;;;;;;;7.49;66.60;100592.41;5116980;27;20053;-69
2021/04/18 10:13:53;;;;;;;9.20;5.97;;;;;;;7.51;66.35;100595.94;5101093;28;20044;-68
2021/04/18 10:16:38;;;;;;;7.00;4.82;;;;;;;7.51;66.44;100586.53;5094511;28;20028;-69
2021/04/18 10:19:17;;;;;;;7.72;5.18;;;;;;;7.51;66.44;100585.63;5093371;28;20040;-69
2021/04/18 10:21:48;;;;;;;8.00;5.20;;;;;;;7.52;66.55;100587.38;5076049;28;20115;-69
2021/04/18 10:24:52;;;;;;;7.50;4.82;;;;;;;7.52;66.28;100577.97;5093430;28;20131;-69
2021/04/18 10:27:33;;;;;;;6.20;4.38;;;;;;;7.53;66.65;100571.97;5035147;28;20059;-69
2021/04/18 10:30:04;;;;;;;6.95;4.57;;;;;;;7.55;66.27;100572.88;5087394;28;20048;-69
2021/04/18 10:32:33;;;;;;;;;;;;;;;7.55;66.22;100560.00;5094631;28;20422;-69
2021/04/18 10:34:58;;;;;;;6.63;4.65;;;;;;;7.56;66.93;100577.22;5092903;28;19923;-69
2021/04/18 10:37:24;;;;;;;6.82;4.93;;;;;;;7.60;66.54;100561.03;5093961;28;20473;-69
2021/04/18 10:39:50;;;;;;;8.80;5.13;;;;;;;7.62;66.73;100554.25;5092798;28;20534;-69
2021/04/18 10:42:24;;;;;;;8.00;5.43;;;;;;;7.65;66.46;100550.03;5094296;28;20119;-69
2021/04/18 10:44:55;;;;;;;7.53;5.13;;;;;;;7.66;66.48;100555.22;5093099;28;20071;-68
2021/04/18 10:47:21;;;;;;;6.07;4.35;;;;;;;7.67;66.48;100553.53;5094235;28;20487;-69
2021/04/18 10:49:50;;;;;;;8.63;5.30;;;;;;;7.67;66.32;100543.22;5093904;28;20089;-69
2021/04/18 10:52:18;;;;;;;8.38;3.92;;;;;;;7.67;66.03;100544.09;5093825;28;20036;-68
2021/04/18 10:54:47;;;;;;;7.32;4.20;;;;;;;7.67;66.18;100536.34;5093322;28;20483;-68
2021/04/18 10:57:12;;;;;;;8.80;4.70;;;;;;;7.68;66.59;100535.53;5093760;28;20040;-69
2021/04/18 10:59:40;;;;;;;7.53;4.85;;;;;;;7.68;66.47;100532.94;5094175;28;20043;-68
2021/04/18 11:02:07;;;;;;;6.70;5.13;;;;;;;7.69;66.19;100524.38;5093746;28;20033;-68
2021/04/18 11:04:32;;;;;;;6.53;4.93;;;;;;;7.70;66.52;100533.88;5093734;28;20040;-68
2021/04/18 11:07:01;;;;;;;8.48;4.80;;;;;;;7.73;66.27;100530.53;5092630;28;20605;-68
2021/04/18 11:09:27;;;;;;;7.63;4.70;;;;;;;7.75;66.36;100529.78;5093258;28;20036;-68
2021/04/18 11:11:54;;;;;;;9.02;4.47;;;;;;;7.77;66.02;100535.88;5093324;28;20112;-69
2021/04/18 11:14:20;;;;;;;9.48;4.82;;;;;;;7.78;66.05;100529.00;5091658;28;20109;-68
2021/04/18 11:16:48;;;;;;;7.13;4.85;;;;;;;7.78;65.99;100529.84;5075350;28;20044;-68
2021/04/18 11:19:14;;;;;;;8.15;4.82;;;;;;;7.78;66.25;100526.41;5092246;28;20040;-69
2021/04/18 11:21:42;;;;;;;7.25;4.60;;;;;;;7.80;66.00;100529.03;5092387;28;20039;-69
2021/04/18 11:24:11;;;;;;;9.43;4.82;;;;;;;7.79;66.41;100528.16;5093310;28;20154;-67
2021/04/18 11:26:37;;;;;;;10.43;5.60;;;;;;;7.80;66.15;100516.13;5092519;28;20043;-68
2021/04/18 11:29:05;;;;;;;6.53;4.85;;;;;;;7.79;66.27;100515.25;5093867;28;20434;-68
2021/04/18 11:31:31;;;;;;;7.75;4.95;;;;;;;7.79;66.20;100515.25;5092026;28;20513;-68
2021/04/18 11:33:56;;;;;;;6.47;4.97;;;;;;;7.78;66.32;100514.38;5091938;28;20036;-69
2021/04/18 11:36:27;;;;;;;7.75;4.85;;;;;;;7.80;66.25;100521.28;5075649;28;20484;-69
2021/04/18 11:38:53;;;;;;;9.68;6.40;;;;;;;7.81;66.33;100517.88;5093321;28;20040;-69
2021/04/18 11:41:20;;;;;;;8.88;5.45;;;;;;;7.81;66.25;100520.47;5093011;28;20083;-69
2021/04/18 11:43:46;;;;;;;8.50;4.88;;;;;;;7.80;66.44;100517.03;5093563;28;20040;-68
2021/04/18 11:46:13;;;;;;;8.90;5.05;;;;;;;7.81;66.22;100513.63;5092375;28;20043;-68
2021/04/18 11:48:41;;;;;;;8.85;4.65;;;;;;;7.83;66.16;100517.13;5092343;28;20044;-69
2021/04/18 11:51:10;;;;;;;6.70;5.05;;;;;;;7.86;66.25;100509.47;5093451;28;20032;-68